sensor_id;sensor_type;location;lat;lon;timestamp;P1;durP1;ratioP1;P2;durP2;ratioP2
41705;SDS011;27385;51.096;17.190;2023-07-20T00:01:38;5.50;;;1.10;;
41705;SDS011;27385;51.096;17.190;2023-07-20T00:04:13;8.50;;;0.90;;
41705;SDS011;27385;51.096;17.190;2023-07-20T00:06:44;4.80;;;0.90;;
41705;SDS011;27385;51.096;17.190;2023-07-20T00:09:15;5.60;;;0.90;;
41705;SDS011;27385;51.096;17.190;2023-07-20T00:11:49;6.20;;;1.00;;
41705;SDS011;27385;51.096;17.190;2023-07-20T00:14:21;9.30;;;1.40;;
41705;SDS011;27385;51.096;17.190;2023-07-20T00:16:54;5.20;;;0.80;;
41705;SDS011;27385;51.096;17.190;2023-07-20T00:19:25;4.60;;;0.90;;
41705;SDS011;27385;51.096;17.190;2023-07-20T00:21:57;4.90;;;0.80;;
41705;SDS011;27385;51.096;17.190;2023-07-20T00:24:28;4.30;;;0.70;;
41705;SDS011;27385;51.096;17.190;2023-07-20T00:27:00;4.00;;;0.90;;
41705;SDS011;27385;51.096;17.190;2023-07-20T00:29:30;5.60;;;1.00;;
41705;SDS011;27385;51.096;17.190;2023-07-20T00:32:01;6.50;;;0.90;;
41705;SDS011;27385;51.096;17.190;2023-07-20T00:34:34;5.00;;;0.80;;
41705;SDS011;27385;51.096;17.190;2023-07-20T00:37:05;3.40;;;1.00;;
41705;SDS011;27385;51.096;17.190;2023-07-20T00:39:35;5.00;;;0.90;;
41705;SDS011;27385;51.096;17.190;2023-07-20T00:42:06;4.50;;;1.00;;
41705;SDS011;27385;51.096;17.190;2023-07-20T00:44:37;6.70;;;1.20;;
41705;SDS011;27385;51.096;17.190;2023-07-20T00:47:08;4.80;;;1.00;;
41705;SDS011;27385;51.096;17.190;2023-07-20T00:49:39;5.20;;;0.80;;
41705;SDS011;27385;51.096;17.190;2023-07-20T00:52:10;4.10;;;0.90;;
41705;SDS011;27385;51.096;17.190;2023-07-20T00:54:43;7.30;;;1.40;;
41705;SDS011;27385;51.096;17.190;2023-07-20T00:57:15;5.10;;;0.80;;
41705;SDS011;27385;51.096;17.190;2023-07-20T00:59:46;6.60;;;0.90;;
41705;SDS011;27385;51.096;17.190;2023-07-20T01:02:17;8.50;;;0.90;;
41705;SDS011;27385;51.096;17.190;2023-07-20T01:04:48;4.50;;;1.10;;
41705;SDS011;27385;51.096;17.190;2023-07-20T01:07:22;4.00;;;0.90;;
41705;SDS011;27385;51.096;17.190;2023-07-20T01:09:59;4.40;;;1.10;;
41705;SDS011;27385;51.096;17.190;2023-07-20T01:12:39;5.80;;;1.00;;
41705;SDS011;27385;51.096;17.190;2023-07-20T01:15:12;6.90;;;1.30;;
41705;SDS011;27385;51.096;17.190;2023-07-20T01:17:43;6.60;;;1.40;;
41705;SDS011;27385;51.096;17.190;2023-07-20T01:20:14;4.60;;;0.90;;
41705;SDS011;27385;51.096;17.190;2023-07-20T01:26:15;5.60;;;0.80;;
41705;SDS011;27385;51.096;17.190;2023-07-20T01:29:07;5.20;;;1.20;;
41705;SDS011;27385;51.096;17.190;2023-07-20T01:31:47;6.40;;;0.90;;
41705;SDS011;27385;51.096;17.190;2023-07-20T01:34:22;5.60;;;1.00;;
41705;SDS011;27385;51.096;17.190;2023-07-20T01:36:54;5.40;;;0.90;;
41705;SDS011;27385;51.096;17.190;2023-07-20T01:39:26;5.30;;;1.00;;
41705;SDS011;27385;51.096;17.190;2023-07-20T01:41:57;2.80;;;0.90;;
41705;SDS011;27385;51.096;17.190;2023-07-20T01:44:28;4.30;;;0.80;;
41705;SDS011;27385;51.096;17.190;2023-07-20T01:46:59;9.10;;;1.10;;
41705;SDS011;27385;51.096;17.190;2023-07-20T01:49:30;5.70;;;1.20;;
41705;SDS011;27385;51.096;17.190;2023-07-20T01:52:01;7.20;;;1.00;;
41705;SDS011;27385;51.096;17.190;2023-07-20T01:54:32;7.40;;;1.10;;
41705;SDS011;27385;51.096;17.190;2023-07-20T01:57:03;6.10;;;1.00;;
41705;SDS011;27385;51.096;17.190;2023-07-20T01:59:34;4.90;;;1.10;;
41705;SDS011;27385;51.096;17.190;2023-07-20T02:02:05;7.20;;;1.00;;
41705;SDS011;27385;51.096;17.190;2023-07-20T02:04:37;5.10;;;1.00;;
41705;SDS011;27385;51.096;17.190;2023-07-20T02:07:07;5.80;;;0.90;;
41705;SDS011;27385;51.096;17.190;2023-07-20T02:09:38;4.40;;;1.10;;
41705;SDS011;27385;51.096;17.190;2023-07-20T02:12:09;6.80;;;1.00;;
41705;SDS011;27385;51.096;17.190;2023-07-20T02:14:40;6.20;;;1.10;;
41705;SDS011;27385;51.096;17.190;2023-07-20T02:17:11;9.10;;;1.40;;
41705;SDS011;27385;51.096;17.190;2023-07-20T02:19:41;6.20;;;1.20;;
41705;SDS011;27385;51.096;17.190;2023-07-20T02:22:13;6.20;;;1.20;;
41705;SDS011;27385;51.096;17.190;2023-07-20T02:24:44;5.80;;;1.10;;
41705;SDS011;27385;51.096;17.190;2023-07-20T02:27:15;4.90;;;1.40;;
41705;SDS011;27385;51.096;17.190;2023-07-20T02:29:46;5.50;;;1.10;;
41705;SDS011;27385;51.096;17.190;2023-07-20T02:32:18;9.40;;;1.20;;
41705;SDS011;27385;51.096;17.190;2023-07-20T02:34:49;7.00;;;1.30;;
41705;SDS011;27385;51.096;17.190;2023-07-20T02:37:20;8.90;;;1.20;;
41705;SDS011;27385;51.096;17.190;2023-07-20T02:39:50;5.20;;;1.20;;
41705;SDS011;27385;51.096;17.190;2023-07-20T02:42:21;6.50;;;1.20;;
41705;SDS011;27385;51.096;17.190;2023-07-20T02:44:53;5.60;;;1.40;;
41705;SDS011;27385;51.096;17.190;2023-07-20T02:47:24;6.90;;;1.40;;
41705;SDS011;27385;51.096;17.190;2023-07-20T02:49:55;10.00;;;1.20;;
41705;SDS011;27385;51.096;17.190;2023-07-20T02:52:25;5.50;;;1.40;;
41705;SDS011;27385;51.096;17.190;2023-07-20T02:54:57;6.70;;;1.50;;
41705;SDS011;27385;51.096;17.190;2023-07-20T02:57:28;5.80;;;1.50;;
41705;SDS011;27385;51.096;17.190;2023-07-20T02:59:59;5.30;;;1.10;;
41705;SDS011;27385;51.096;17.190;2023-07-20T03:02:33;7.30;;;1.10;;
41705;SDS011;27385;51.096;17.190;2023-07-20T03:05:04;6.90;;;1.60;;
41705;SDS011;27385;51.096;17.190;2023-07-20T03:07:36;5.30;;;1.20;;
41705;SDS011;27385;51.096;17.190;2023-07-20T03:10:07;7.50;;;1.50;;
41705;SDS011;27385;51.096;17.190;2023-07-20T03:12:39;6.20;;;1.10;;
41705;SDS011;27385;51.096;17.190;2023-07-20T03:15:10;7.80;;;1.30;;
41705;SDS011;27385;51.096;17.190;2023-07-20T03:17:41;6.70;;;1.40;;
41705;SDS011;27385;51.096;17.190;2023-07-20T03:20:12;3.50;;;1.00;;
41705;SDS011;27385;51.096;17.190;2023-07-20T03:22:42;5.10;;;1.10;;
41705;SDS011;27385;51.096;17.190;2023-07-20T03:25:14;6.80;;;1.30;;
41705;SDS011;27385;51.096;17.190;2023-07-20T03:27:45;3.50;;;0.90;;
41705;SDS011;27385;51.096;17.190;2023-07-20T03:30:16;6.30;;;1.10;;
41705;SDS011;27385;51.096;17.190;2023-07-20T03:32:47;4.50;;;1.10;;
41705;SDS011;27385;51.096;17.190;2023-07-20T03:35:18;10.50;;;1.40;;
41705;SDS011;27385;51.096;17.190;2023-07-20T03:37:48;6.80;;;1.30;;
41705;SDS011;27385;51.096;17.190;2023-07-20T03:40:19;6.00;;;1.30;;
41705;SDS011;27385;51.096;17.190;2023-07-20T03:42:50;6.00;;;1.00;;
41705;SDS011;27385;51.096;17.190;2023-07-20T03:45:21;5.40;;;0.90;;
41705;SDS011;27385;51.096;17.190;2023-07-20T03:47:52;5.60;;;1.80;;
41705;SDS011;27385;51.096;17.190;2023-07-20T03:50:23;7.30;;;1.30;;
41705;SDS011;27385;51.096;17.190;2023-07-20T03:52:53;3.10;;;1.00;;
41705;SDS011;27385;51.096;17.190;2023-07-20T03:55:24;7.30;;;1.20;;
41705;SDS011;27385;51.096;17.190;2023-07-20T03:57:56;5.20;;;1.10;;
41705;SDS011;27385;51.096;17.190;2023-07-20T04:00:27;7.70;;;1.30;;
41705;SDS011;27385;51.096;17.190;2023-07-20T04:02:58;6.10;;;1.10;;
41705;SDS011;27385;51.096;17.190;2023-07-20T04:05:28;7.60;;;1.40;;
41705;SDS011;27385;51.096;17.190;2023-07-20T04:08:00;8.10;;;1.50;;
41705;SDS011;27385;51.096;17.190;2023-07-20T04:10:30;6.70;;;1.30;;
41705;SDS011;27385;51.096;17.190;2023-07-20T04:13:01;7.90;;;1.70;;
41705;SDS011;27385;51.096;17.190;2023-07-20T04:15:32;6.00;;;1.30;;
41705;SDS011;27385;51.096;17.190;2023-07-20T04:18:02;5.60;;;1.20;;
41705;SDS011;27385;51.096;17.190;2023-07-20T04:20:33;8.00;;;1.30;;
41705;SDS011;27385;51.096;17.190;2023-07-20T04:23:04;7.00;;;1.20;;
41705;SDS011;27385;51.096;17.190;2023-07-20T04:25:35;4.90;;;1.10;;
41705;SDS011;27385;51.096;17.190;2023-07-20T04:28:07;6.60;;;1.90;;
41705;SDS011;27385;51.096;17.190;2023-07-20T04:30:38;7.90;;;1.20;;
41705;SDS011;27385;51.096;17.190;2023-07-20T04:33:09;6.80;;;1.50;;
41705;SDS011;27385;51.096;17.190;2023-07-20T04:35:46;7.40;;;1.50;;
41705;SDS011;27385;51.096;17.190;2023-07-20T04:38:21;7.40;;;1.50;;
41705;SDS011;27385;51.096;17.190;2023-07-20T04:40:52;7.60;;;1.60;;
41705;SDS011;27385;51.096;17.190;2023-07-20T04:43:23;8.10;;;2.10;;
41705;SDS011;27385;51.096;17.190;2023-07-20T04:45:54;6.90;;;1.40;;
41705;SDS011;27385;51.096;17.190;2023-07-20T04:48:24;7.80;;;1.50;;
41705;SDS011;27385;51.096;17.190;2023-07-20T04:50:55;5.50;;;1.60;;
41705;SDS011;27385;51.096;17.190;2023-07-20T04:53:26;7.90;;;1.60;;
41705;SDS011;27385;51.096;17.190;2023-07-20T04:55:57;8.30;;;1.80;;
41705;SDS011;27385;51.096;17.190;2023-07-20T04:58:28;7.60;;;1.60;;
41705;SDS011;27385;51.096;17.190;2023-07-20T05:00:58;8.10;;;1.80;;
41705;SDS011;27385;51.096;17.190;2023-07-20T05:03:29;9.10;;;2.20;;
41705;SDS011;27385;51.096;17.190;2023-07-20T05:06:00;7.70;;;1.80;;
41705;SDS011;27385;51.096;17.190;2023-07-20T05:08:30;8.50;;;2.20;;
41705;SDS011;27385;51.096;17.190;2023-07-20T05:11:01;13.00;;;2.20;;
41705;SDS011;27385;51.096;17.190;2023-07-20T05:13:32;12.70;;;3.00;;
41705;SDS011;27385;51.096;17.190;2023-07-20T05:16:03;11.30;;;1.90;;
41705;SDS011;27385;51.096;17.190;2023-07-20T05:18:34;11.80;;;2.20;;
41705;SDS011;27385;51.096;17.190;2023-07-20T05:21:05;11.40;;;3.10;;
41705;SDS011;27385;51.096;17.190;2023-07-20T05:23:36;8.20;;;2.00;;
41705;SDS011;27385;51.096;17.190;2023-07-20T05:26:06;10.80;;;2.40;;
41705;SDS011;27385;51.096;17.190;2023-07-20T05:28:37;9.70;;;2.20;;
41705;SDS011;27385;51.096;17.190;2023-07-20T05:31:08;8.90;;;2.10;;
41705;SDS011;27385;51.096;17.190;2023-07-20T05:33:39;7.80;;;2.00;;
41705;SDS011;27385;51.096;17.190;2023-07-20T05:36:09;10.80;;;2.60;;
41705;SDS011;27385;51.096;17.190;2023-07-20T05:38:52;10.70;;;2.70;;
41705;SDS011;27385;51.096;17.190;2023-07-20T05:41:22;7.70;;;2.20;;
41705;SDS011;27385;51.096;17.190;2023-07-20T05:43:54;9.40;;;1.90;;
41705;SDS011;27385;51.096;17.190;2023-07-20T05:46:24;9.60;;;2.30;;
41705;SDS011;27385;51.096;17.190;2023-07-20T05:48:56;10.20;;;2.40;;
41705;SDS011;27385;51.096;17.190;2023-07-20T05:51:27;12.50;;;2.00;;
41705;SDS011;27385;51.096;17.190;2023-07-20T05:53:57;10.30;;;2.50;;
41705;SDS011;27385;51.096;17.190;2023-07-20T05:56:28;10.10;;;2.40;;
41705;SDS011;27385;51.096;17.190;2023-07-20T05:58:59;9.00;;;2.00;;
41705;SDS011;27385;51.096;17.190;2023-07-20T06:01:30;12.10;;;2.30;;
41705;SDS011;27385;51.096;17.190;2023-07-20T06:04:01;12.30;;;2.60;;
41705;SDS011;27385;51.096;17.190;2023-07-20T06:06:33;12.40;;;2.60;;
41705;SDS011;27385;51.096;17.190;2023-07-20T06:09:03;10.80;;;2.30;;
41705;SDS011;27385;51.096;17.190;2023-07-20T06:11:37;9.00;;;2.30;;
41705;SDS011;27385;51.096;17.190;2023-07-20T06:14:08;8.40;;;2.10;;
41705;SDS011;27385;51.096;17.190;2023-07-20T06:16:38;13.60;;;2.80;;
41705;SDS011;27385;51.096;17.190;2023-07-20T06:19:09;11.00;;;2.80;;
41705;SDS011;27385;51.096;17.190;2023-07-20T06:21:40;8.70;;;2.50;;
41705;SDS011;27385;51.096;17.190;2023-07-20T06:24:11;10.90;;;2.80;;
41705;SDS011;27385;51.096;17.190;2023-07-20T06:26:41;12.90;;;3.20;;
41705;SDS011;27385;51.096;17.190;2023-07-20T06:29:12;17.40;;;3.50;;
41705;SDS011;27385;51.096;17.190;2023-07-20T06:31:43;12.90;;;3.10;;
41705;SDS011;27385;51.096;17.190;2023-07-20T06:34:14;13.10;;;2.50;;
41705;SDS011;27385;51.096;17.190;2023-07-20T06:36:44;11.50;;;2.70;;
41705;SDS011;27385;51.096;17.190;2023-07-20T06:39:15;11.70;;;2.80;;
41705;SDS011;27385;51.096;17.190;2023-07-20T06:41:46;12.10;;;3.50;;
41705;SDS011;27385;51.096;17.190;2023-07-20T06:44:17;10.70;;;3.50;;
41705;SDS011;27385;51.096;17.190;2023-07-20T06:46:48;11.70;;;3.10;;
41705;SDS011;27385;51.096;17.190;2023-07-20T06:49:25;11.20;;;3.40;;
41705;SDS011;27385;51.096;17.190;2023-07-20T06:51:56;16.10;;;3.00;;
41705;SDS011;27385;51.096;17.190;2023-07-20T06:54:27;9.30;;;3.00;;
41705;SDS011;27385;51.096;17.190;2023-07-20T06:56:57;11.60;;;3.40;;
41705;SDS011;27385;51.096;17.190;2023-07-20T06:59:28;10.00;;;2.30;;
41705;SDS011;27385;51.096;17.190;2023-07-20T07:01:59;10.00;;;2.40;;
41705;SDS011;27385;51.096;17.190;2023-07-20T07:04:29;9.20;;;2.50;;
41705;SDS011;27385;51.096;17.190;2023-07-20T07:07:01;14.50;;;2.30;;
41705;SDS011;27385;51.096;17.190;2023-07-20T07:09:32;9.50;;;2.00;;
41705;SDS011;27385;51.096;17.190;2023-07-20T07:12:03;7.70;;;1.90;;
41705;SDS011;27385;51.096;17.190;2023-07-20T07:14:35;9.80;;;2.20;;
41705;SDS011;27385;51.096;17.190;2023-07-20T07:17:06;10.20;;;1.80;;
41705;SDS011;27385;51.096;17.190;2023-07-20T07:19:37;10.90;;;2.10;;
41705;SDS011;27385;51.096;17.190;2023-07-20T07:22:08;7.00;;;2.10;;
41705;SDS011;27385;51.096;17.190;2023-07-20T07:24:40;8.00;;;1.90;;
41705;SDS011;27385;51.096;17.190;2023-07-20T07:27:11;9.90;;;2.10;;
41705;SDS011;27385;51.096;17.190;2023-07-20T07:29:43;13.50;;;2.60;;
41705;SDS011;27385;51.096;17.190;2023-07-20T07:32:14;7.90;;;1.70;;
41705;SDS011;27385;51.096;17.190;2023-07-20T07:34:45;12.00;;;2.20;;
41705;SDS011;27385;51.096;17.190;2023-07-20T07:37:17;8.70;;;1.70;;
41705;SDS011;27385;51.096;17.190;2023-07-20T07:39:48;10.20;;;2.00;;
41705;SDS011;27385;51.096;17.190;2023-07-20T07:42:19;9.80;;;1.80;;
41705;SDS011;27385;51.096;17.190;2023-07-20T07:44:49;9.90;;;2.00;;
41705;SDS011;27385;51.096;17.190;2023-07-20T07:47:20;10.60;;;1.70;;
41705;SDS011;27385;51.096;17.190;2023-07-20T07:49:51;9.00;;;1.80;;
41705;SDS011;27385;51.096;17.190;2023-07-20T07:52:22;8.10;;;2.40;;
41705;SDS011;27385;51.096;17.190;2023-07-20T07:54:52;9.20;;;2.40;;
41705;SDS011;27385;51.096;17.190;2023-07-20T07:57:23;14.20;;;3.00;;
41705;SDS011;27385;51.096;17.190;2023-07-20T07:59:54;9.90;;;2.70;;
41705;SDS011;27385;51.096;17.190;2023-07-20T08:02:25;14.80;;;2.10;;
41705;SDS011;27385;51.096;17.190;2023-07-20T08:04:56;8.50;;;2.10;;
41705;SDS011;27385;51.096;17.190;2023-07-20T08:07:28;8.50;;;2.00;;
41705;SDS011;27385;51.096;17.190;2023-07-20T08:09:59;6.10;;;1.70;;
41705;SDS011;27385;51.096;17.190;2023-07-20T08:12:30;8.60;;;2.50;;
41705;SDS011;27385;51.096;17.190;2023-07-20T08:15:01;8.10;;;1.80;;
41705;SDS011;27385;51.096;17.190;2023-07-20T08:17:33;7.30;;;1.90;;
41705;SDS011;27385;51.096;17.190;2023-07-20T08:20:04;6.70;;;1.60;;
41705;SDS011;27385;51.096;17.190;2023-07-20T08:22:37;6.20;;;1.50;;
41705;SDS011;27385;51.096;17.190;2023-07-20T08:25:08;6.70;;;1.40;;
41705;SDS011;27385;51.096;17.190;2023-07-20T08:27:39;7.10;;;1.50;;
41705;SDS011;27385;51.096;17.190;2023-07-20T08:30:10;6.60;;;1.60;;
41705;SDS011;27385;51.096;17.190;2023-07-20T08:32:41;9.10;;;1.90;;
41705;SDS011;27385;51.096;17.190;2023-07-20T08:35:12;6.80;;;1.70;;
41705;SDS011;27385;51.096;17.190;2023-07-20T08:37:43;10.10;;;2.30;;
41705;SDS011;27385;51.096;17.190;2023-07-20T08:40:15;5.70;;;1.40;;
41705;SDS011;27385;51.096;17.190;2023-07-20T08:42:46;8.80;;;1.40;;
41705;SDS011;27385;51.096;17.190;2023-07-20T08:45:17;6.90;;;1.80;;
41705;SDS011;27385;51.096;17.190;2023-07-20T08:47:49;7.00;;;1.30;;
41705;SDS011;27385;51.096;17.190;2023-07-20T08:50:21;5.00;;;1.10;;
41705;SDS011;27385;51.096;17.190;2023-07-20T08:52:53;5.60;;;0.90;;
41705;SDS011;27385;51.096;17.190;2023-07-20T08:55:25;6.40;;;0.90;;
41705;SDS011;27385;51.096;17.190;2023-07-20T08:57:57;2.70;;;0.70;;
41705;SDS011;27385;51.096;17.190;2023-07-20T09:00:29;3.00;;;0.80;;
41705;SDS011;27385;51.096;17.190;2023-07-20T09:03:00;3.80;;;0.70;;
41705;SDS011;27385;51.096;17.190;2023-07-20T09:05:33;2.00;;;0.60;;
41705;SDS011;27385;51.096;17.190;2023-07-20T09:08:05;4.80;;;1.00;;
41705;SDS011;27385;51.096;17.190;2023-07-20T09:10:35;4.60;;;0.70;;
41705;SDS011;27385;51.096;17.190;2023-07-20T09:13:06;3.30;;;0.60;;
41705;SDS011;27385;51.096;17.190;2023-07-20T09:15:37;3.30;;;0.70;;
41705;SDS011;27385;51.096;17.190;2023-07-20T09:18:07;5.00;;;1.00;;
41705;SDS011;27385;51.096;17.190;2023-07-20T09:20:38;1.90;;;0.60;;
41705;SDS011;27385;51.096;17.190;2023-07-20T09:23:10;4.00;;;0.70;;
41705;SDS011;27385;51.096;17.190;2023-07-20T09:25:41;3.80;;;0.70;;
41705;SDS011;27385;51.096;17.190;2023-07-20T09:28:13;2.80;;;0.40;;
41705;SDS011;27385;51.096;17.190;2023-07-20T09:30:44;3.90;;;0.70;;
41705;SDS011;27385;51.096;17.190;2023-07-20T09:33:19;2.60;;;0.70;;
41705;SDS011;27385;51.096;17.190;2023-07-20T09:35:51;2.30;;;0.60;;
41705;SDS011;27385;51.096;17.190;2023-07-20T09:38:22;3.00;;;0.80;;
41705;SDS011;27385;51.096;17.190;2023-07-20T09:40:55;1.80;;;0.50;;
41705;SDS011;27385;51.096;17.190;2023-07-20T09:43:26;3.00;;;0.60;;
41705;SDS011;27385;51.096;17.190;2023-07-20T09:45:59;6.20;;;0.80;;
41705;SDS011;27385;51.096;17.190;2023-07-20T09:48:30;3.80;;;0.80;;
41705;SDS011;27385;51.096;17.190;2023-07-20T09:51:02;7.10;;;1.00;;
41705;SDS011;27385;51.096;17.190;2023-07-20T09:53:35;4.50;;;0.90;;
41705;SDS011;27385;51.096;17.190;2023-07-20T09:56:06;4.30;;;0.90;;
41705;SDS011;27385;51.096;17.190;2023-07-20T09:58:38;3.00;;;0.80;;
41705;SDS011;27385;51.096;17.190;2023-07-20T10:01:10;5.90;;;1.20;;
41705;SDS011;27385;51.096;17.190;2023-07-20T10:03:45;2.00;;;0.70;;
41705;SDS011;27385;51.096;17.190;2023-07-20T10:06:20;2.60;;;0.60;;
41705;SDS011;27385;51.096;17.190;2023-07-20T10:08:53;2.80;;;0.50;;
41705;SDS011;27385;51.096;17.190;2023-07-20T10:11:31;4.00;;;0.70;;
41705;SDS011;27385;51.096;17.190;2023-07-20T10:14:04;1.20;;;0.50;;
41705;SDS011;27385;51.096;17.190;2023-07-20T10:16:41;3.60;;;0.50;;
41705;SDS011;27385;51.096;17.190;2023-07-20T10:19:22;2.50;;;0.60;;
41705;SDS011;27385;51.096;17.190;2023-07-20T10:21:56;3.30;;;0.60;;
41705;SDS011;27385;51.096;17.190;2023-07-20T10:24:30;3.50;;;0.60;;
41705;SDS011;27385;51.096;17.190;2023-07-20T10:27:03;2.20;;;0.70;;
41705;SDS011;27385;51.096;17.190;2023-07-20T10:29:35;2.40;;;0.50;;
41705;SDS011;27385;51.096;17.190;2023-07-20T10:32:07;1.70;;;0.60;;
41705;SDS011;27385;51.096;17.190;2023-07-20T10:34:39;2.90;;;0.60;;
41705;SDS011;27385;51.096;17.190;2023-07-20T10:37:10;3.20;;;0.60;;
41705;SDS011;27385;51.096;17.190;2023-07-20T10:40:00;2.80;;;0.60;;
41705;SDS011;27385;51.096;17.190;2023-07-20T10:42:59;3.30;;;0.70;;
41705;SDS011;27385;51.096;17.190;2023-07-20T10:45:34;2.60;;;0.50;;
41705;SDS011;27385;51.096;17.190;2023-07-20T10:48:14;3.60;;;0.40;;
41705;SDS011;27385;51.096;17.190;2023-07-20T10:53:43;1.50;;;0.40;;
41705;SDS011;27385;51.096;17.190;2023-07-20T10:56:14;3.50;;;0.40;;
41705;SDS011;27385;51.096;17.190;2023-07-20T10:58:51;3.80;;;0.20;;
41705;SDS011;27385;51.096;17.190;2023-07-20T11:01:28;1.60;;;0.30;;
41705;SDS011;27385;51.096;17.190;2023-07-20T11:04:00;3.20;;;0.40;;
41705;SDS011;27385;51.096;17.190;2023-07-20T11:06:37;2.40;;;0.30;;
41705;SDS011;27385;51.096;17.190;2023-07-20T11:09:12;4.20;;;0.40;;
41705;SDS011;27385;51.096;17.190;2023-07-20T11:11:44;1.50;;;0.40;;
41705;SDS011;27385;51.096;17.190;2023-07-20T11:14:22;2.70;;;0.30;;
41705;SDS011;27385;51.096;17.190;2023-07-20T11:17:10;1.80;;;0.60;;
41705;SDS011;27385;51.096;17.190;2023-07-20T11:19:42;3.40;;;0.50;;
41705;SDS011;27385;51.096;17.190;2023-07-20T11:22:17;3.80;;;0.40;;
41705;SDS011;27385;51.096;17.190;2023-07-20T11:24:48;1.40;;;0.30;;
41705;SDS011;27385;51.096;17.190;2023-07-20T11:27:19;2.30;;;0.50;;
41705;SDS011;27385;51.096;17.190;2023-07-20T11:29:51;2.10;;;0.50;;
41705;SDS011;27385;51.096;17.190;2023-07-20T11:32:21;3.50;;;0.50;;
41705;SDS011;27385;51.096;17.190;2023-07-20T11:34:53;1.80;;;0.40;;
41705;SDS011;27385;51.096;17.190;2023-07-20T11:37:23;1.30;;;0.30;;
41705;SDS011;27385;51.096;17.190;2023-07-20T11:39:56;5.10;;;0.40;;
41705;SDS011;27385;51.096;17.190;2023-07-20T11:42:27;4.60;;;0.70;;
41705;SDS011;27385;51.096;17.190;2023-07-20T11:44:58;4.30;;;0.40;;
41705;SDS011;27385;51.096;17.190;2023-07-20T11:47:32;3.40;;;0.50;;
41705;SDS011;27385;51.096;17.190;2023-07-20T11:50:10;1.90;;;0.30;;
41705;SDS011;27385;51.096;17.190;2023-07-20T11:52:41;1.50;;;0.40;;
41705;SDS011;27385;51.096;17.190;2023-07-20T11:55:12;1.50;;;0.30;;
41705;SDS011;27385;51.096;17.190;2023-07-20T11:57:45;1.60;;;0.30;;
41705;SDS011;27385;51.096;17.190;2023-07-20T12:00:31;3.10;;;0.40;;
41705;SDS011;27385;51.096;17.190;2023-07-20T12:03:04;6.40;;;0.70;;
41705;SDS011;27385;51.096;17.190;2023-07-20T12:05:35;1.90;;;0.50;;
41705;SDS011;27385;51.096;17.190;2023-07-20T12:08:06;5.20;;;1.00;;
41705;SDS011;27385;51.096;17.190;2023-07-20T12:10:40;3.50;;;0.80;;
41705;SDS011;27385;51.096;17.190;2023-07-20T12:13:11;3.80;;;0.60;;
41705;SDS011;27385;51.096;17.190;2023-07-20T12:15:42;5.60;;;1.20;;
41705;SDS011;27385;51.096;17.190;2023-07-20T12:18:13;2.20;;;0.60;;
41705;SDS011;27385;51.096;17.190;2023-07-20T12:20:44;4.00;;;0.90;;
41705;SDS011;27385;51.096;17.190;2023-07-20T12:23:15;3.00;;;0.80;;
41705;SDS011;27385;51.096;17.190;2023-07-20T12:25:47;3.50;;;1.00;;
41705;SDS011;27385;51.096;17.190;2023-07-20T12:28:18;3.40;;;1.10;;
41705;SDS011;27385;51.096;17.190;2023-07-20T12:30:49;3.60;;;1.20;;
41705;SDS011;27385;51.096;17.190;2023-07-20T12:33:26;10.50;;;1.30;;
41705;SDS011;27385;51.096;17.190;2023-07-20T12:35:57;3.70;;;1.20;;
41705;SDS011;27385;51.096;17.190;2023-07-20T12:38:28;5.10;;;1.30;;
41705;SDS011;27385;51.096;17.190;2023-07-20T12:40:59;1.80;;;0.60;;
41705;SDS011;27385;51.096;17.190;2023-07-20T12:43:31;3.00;;;1.10;;
41705;SDS011;27385;51.096;17.190;2023-07-20T12:46:01;2.60;;;0.90;;
41705;SDS011;27385;51.096;17.190;2023-07-20T12:48:32;2.80;;;0.90;;
41705;SDS011;27385;51.096;17.190;2023-07-20T12:51:04;4.10;;;0.90;;
41705;SDS011;27385;51.096;17.190;2023-07-20T12:53:35;6.70;;;1.00;;
41705;SDS011;27385;51.096;17.190;2023-07-20T12:56:06;3.20;;;0.80;;
41705;SDS011;27385;51.096;17.190;2023-07-20T12:58:37;2.40;;;0.70;;
41705;SDS011;27385;51.096;17.190;2023-07-20T13:01:08;1.70;;;0.60;;
41705;SDS011;27385;51.096;17.190;2023-07-20T13:03:38;2.40;;;0.60;;
41705;SDS011;27385;51.096;17.190;2023-07-20T13:06:09;1.70;;;0.60;;
41705;SDS011;27385;51.096;17.190;2023-07-20T13:08:40;2.30;;;0.70;;
41705;SDS011;27385;51.096;17.190;2023-07-20T13:11:10;1.70;;;0.60;;
41705;SDS011;27385;51.096;17.190;2023-07-20T13:13:41;3.50;;;0.80;;
41705;SDS011;27385;51.096;17.190;2023-07-20T13:16:12;2.30;;;0.70;;
41705;SDS011;27385;51.096;17.190;2023-07-20T13:18:44;1.50;;;0.60;;
41705;SDS011;27385;51.096;17.190;2023-07-20T13:21:15;2.90;;;0.60;;
41705;SDS011;27385;51.096;17.190;2023-07-20T13:23:50;4.40;;;0.60;;
41705;SDS011;27385;51.096;17.190;2023-07-20T13:26:21;0.90;;;0.30;;
41705;SDS011;27385;51.096;17.190;2023-07-20T13:28:52;1.30;;;0.40;;
41705;SDS011;27385;51.096;17.190;2023-07-20T13:31:23;1.60;;;0.40;;
41705;SDS011;27385;51.096;17.190;2023-07-20T13:33:53;2.20;;;0.60;;
41705;SDS011;27385;51.096;17.190;2023-07-20T13:36:24;1.90;;;0.40;;
41705;SDS011;27385;51.096;17.190;2023-07-20T13:38:55;1.10;;;0.40;;
41705;SDS011;27385;51.096;17.190;2023-07-20T13:41:26;3.20;;;0.60;;
41705;SDS011;27385;51.096;17.190;2023-07-20T13:43:56;1.00;;;0.30;;
41705;SDS011;27385;51.096;17.190;2023-07-20T13:46:27;1.50;;;0.30;;
41705;SDS011;27385;51.096;17.190;2023-07-20T13:48:58;2.00;;;0.60;;
41705;SDS011;27385;51.096;17.190;2023-07-20T13:51:29;1.10;;;0.40;;
41705;SDS011;27385;51.096;17.190;2023-07-20T13:54:00;2.20;;;0.60;;
41705;SDS011;27385;51.096;17.190;2023-07-20T13:56:31;3.00;;;0.40;;
41705;SDS011;27385;51.096;17.190;2023-07-20T13:59:02;2.80;;;0.40;;
41705;SDS011;27385;51.096;17.190;2023-07-20T14:01:33;2.60;;;0.50;;
41705;SDS011;27385;51.096;17.190;2023-07-20T14:04:04;1.30;;;0.40;;
41705;SDS011;27385;51.096;17.190;2023-07-20T14:06:35;1.10;;;0.40;;
41705;SDS011;27385;51.096;17.190;2023-07-20T14:09:06;1.60;;;0.40;;
41705;SDS011;27385;51.096;17.190;2023-07-20T14:11:37;1.50;;;0.40;;
41705;SDS011;27385;51.096;17.190;2023-07-20T14:14:07;2.00;;;0.40;;
41705;SDS011;27385;51.096;17.190;2023-07-20T14:16:38;1.00;;;0.30;;
41705;SDS011;27385;51.096;17.190;2023-07-20T14:19:09;1.50;;;0.40;;
41705;SDS011;27385;51.096;17.190;2023-07-20T14:21:40;1.70;;;0.30;;
41705;SDS011;27385;51.096;17.190;2023-07-20T14:24:10;1.00;;;0.30;;
41705;SDS011;27385;51.096;17.190;2023-07-20T14:26:41;2.10;;;0.30;;
41705;SDS011;27385;51.096;17.190;2023-07-20T14:29:12;1.20;;;0.30;;
41705;SDS011;27385;51.096;17.190;2023-07-20T14:31:43;1.20;;;0.40;;
41705;SDS011;27385;51.096;17.190;2023-07-20T14:34:16;4.00;;;0.30;;
41705;SDS011;27385;51.096;17.190;2023-07-20T14:36:48;1.70;;;0.40;;
41705;SDS011;27385;51.096;17.190;2023-07-20T14:39:18;0.90;;;0.30;;
41705;SDS011;27385;51.096;17.190;2023-07-20T14:41:49;2.10;;;0.40;;
41705;SDS011;27385;51.096;17.190;2023-07-20T14:44:21;1.50;;;0.30;;
41705;SDS011;27385;51.096;17.190;2023-07-20T14:46:52;6.10;;;0.40;;
41705;SDS011;27385;51.096;17.190;2023-07-20T14:49:23;2.40;;;0.40;;
41705;SDS011;27385;51.096;17.190;2023-07-20T14:51:56;1.50;;;0.30;;
41705;SDS011;27385;51.096;17.190;2023-07-20T14:54:27;3.50;;;0.50;;
41705;SDS011;27385;51.096;17.190;2023-07-20T14:56:57;2.30;;;0.40;;
41705;SDS011;27385;51.096;17.190;2023-07-20T14:59:28;3.60;;;0.50;;
41705;SDS011;27385;51.096;17.190;2023-07-20T15:01:59;1.30;;;0.30;;
41705;SDS011;27385;51.096;17.190;2023-07-20T15:04:29;1.80;;;0.50;;
41705;SDS011;27385;51.096;17.190;2023-07-20T15:07:00;3.10;;;0.40;;